メインページ
METAR-TAF:

METAR-TAF

空港 :

ブライダフ, サウジアラビア

緯度: 26-18N, 経度: 043-46E, 海抜: 648m

現時点の気象観測

当レポートは1時間12分前の01:00(UTC)に作成
の風 6kt
気温 15°C
湿度 100%
気圧 1024 hPa
視程: 5000m
高度3000ftの雲はほとんどない, 積乱雲.
高度4000ftの千切れ雲あり
激しい雷雨, 雨

METAR: OEGS 150100Z 09006KT 5000 TSRA FEW030CB BKN040 15/15 Q1024

時間: 05:12 (02:12 UTC)

予報

当レポートは3時間12分前の23:00(UTC)に作成
予報は15日の 00時(UTC)から 16日の 06時(UTC)まで有効
の風 10kt、最大20ktの突風を伴う
視程: 7000m
高度4000ftの雲は散在している
高度10000ftの雲は散在している
15日の 00時(UTC)から 15日の 12時(UTC)まで一時的に
視程: 3500m
高度3000ftの雲はほとんどない, 積乱雲.
風塵, 激しい雷雨, 雨

TAF: OEGS 142300Z 1500/1606 09010G20KT 7000 SCT040 SCT100 TEMPO 1500/1512 3500 BLDU TSRA FEW030CB

4,000以上の空港の気象観測と天気予報(METAR報とTAF報)

利用可能な観測所は地図上に黄色い丸と赤い丸で示す。

丸の上にカーソルを重ねると観測所名を参照できる。

次にクリックすると気象観測と天気予報を参照できる。

マップの切り替え:黒色「×」印の緑ボタンをクリックして拡大、「-」印の緑ボタンをクリックして縮小、緑色の三角印をクリックして隣りの地図に切り替え


METAR-TAF: